Thrali, Washington
Current Conditions -  °F | °C
As of 12:53 PM on Thursday 23 Oct 2014 (Local Time) from KELN Reporting Station
Broken Clouds Broken Clouds  
Wind Chill: 57°   Ceiling: 6000
Heat Index: 57°   Visibility: 10mi
Dew Point: 44°   Wind: 15mph
Humidity: 62%   Direction: 300°WNW
Pressure: 29.81"   Gusts: NA
Location:  47.0155°N, 120.311°W
Report Text: KELN 231953Z AUTO 30013KT 10SM SCT049 BKN060 14/07 A2981 RMK AO2 RAE04 SLP091 P0000 T01390067
Loading
Personal Weather Stations






























Interactive Weather Map
Tropical Storm Tracking
New forecast layout! Learn more

10-Day Weather Forecast

Advertisements
Track Severe Weather on mobile